Valera, Venezuela
Current Conditions -  °F | °C
As of 6:00 PM on Friday 31 Oct 2014 (Local Time) from SVBI Reporting Station
Few Clouds Few Clouds  
Wind Chill: 86°   Ceiling: Unl
Heat Index: 90°   Visibility: 6mi
Dew Point: 70°   Wind: 2mph
Humidity: 58%   Direction: 110°ESE
Pressure: 29.74"   Gusts: NA
Location:  9.32°N, 70.62°W
Report Text: SVBI 312200Z 11002KT 9999 FEW020 30/21 Q1007
Loading
Personal Weather Stations






























Interactive Weather Map
Tropical Storm Tracking
New forecast layout! Learn more

10-Day Weather Forecast

Advertisements
Track Severe Weather on mobile